createdAt,value
2022-11-29T00:02:09.414Z,101135.34
2022-11-29T00:04:37.589Z,101128.22
2022-11-29T00:07:05.874Z,101125.28
2022-11-29T00:09:32.761Z,101130.56
2022-11-29T00:12:14.440Z,101129.97
2022-11-29T00:14:42.075Z,101140.47
2022-11-29T00:17:09.450Z,101146.31
2022-11-29T00:19:37.499Z,101151.09
2022-11-29T00:22:05.834Z,101150.84
2022-11-29T00:24:32.978Z,101156.44
2022-11-29T00:27:01.230Z,101149.25
2022-11-29T00:29:29.961Z,101148.81
2022-11-29T00:31:56.986Z,101150.81
2022-11-29T00:34:23.977Z,101154.50
2022-11-29T00:36:50.931Z,101158.19
2022-11-29T00:39:19.312Z,101155.97
2022-11-29T00:41:46.348Z,101152.94
2022-11-29T00:44:19.693Z,101155.66
2022-11-29T00:46:47.124Z,101157.22
2022-11-29T00:49:14.258Z,101152.81
2022-11-29T00:51:41.208Z,101156.72
2022-11-29T00:54:08.148Z,101146.31
2022-11-29T00:56:36.459Z,101142.38
2022-11-29T00:59:03.373Z,101142.56
2022-11-29T01:01:30.316Z,101152.66
2022-11-29T01:03:57.290Z,101165.69
2022-11-29T01:06:24.202Z,101161.97
2022-11-29T01:08:51.416Z,101159.50
2022-11-29T01:11:20.877Z,101156.44
2022-11-29T01:13:50.361Z,101168.53
2022-11-29T01:16:17.805Z,101170.56
2022-11-29T01:18:45.131Z,101165.59
2022-11-29T01:21:14.380Z,101167.31
2022-11-29T01:23:42.444Z,101162.00
2022-11-29T01:26:11.879Z,101163.41
2022-11-29T01:28:40.270Z,101168.84
2022-11-29T01:31:09.479Z,101165.59
2022-11-29T01:33:37.180Z,101166.06
2022-11-29T01:36:05.846Z,101166.88
2022-11-29T01:38:32.971Z,101173.22
2022-11-29T01:41:02.116Z,101166.63
2022-11-29T01:43:29.382Z,101176.09
2022-11-29T01:45:56.648Z,101173.38
2022-11-29T01:48:28.623Z,101178.13
2022-11-29T01:51:00.271Z,101179.25
2022-11-29T01:53:28.488Z,101180.06
2022-11-29T01:56:01.364Z,101183.38
2022-11-29T01:58:29.216Z,101191.72
2022-11-29T02:00:57.155Z,101187.78
2022-11-29T02:03:25.538Z,101190.00
2022-11-29T02:05:53.821Z,101193.34
2022-11-29T02:08:26.226Z,101193.31
2022-11-29T02:11:22.454Z,101198.81
2022-11-29T02:14:02.009Z,101189.22
2022-11-29T02:16:37.557Z,101188.09
2022-11-29T02:19:21.606Z,101197.13
2022-11-29T02:21:53.258Z,101189.63
2022-11-29T02:24:57.933Z,101198.69
2022-11-29T02:27:58.001Z,101195.13
2022-11-29T02:31:02.012Z,101191.38
2022-11-29T02:33:59.460Z,101195.41
2022-11-29T02:36:57.331Z,101195.72
2022-11-29T02:39:53.287Z,101198.50
2022-11-29T02:42:56.526Z,101201.53
2022-11-29T02:45:38.580Z,101202.72
2022-11-29T02:48:29.811Z,101203.25
2022-11-29T02:51:05.917Z,101197.16
2022-11-29T02:53:38.677Z,101213.72
2022-11-29T02:56:13.363Z,101219.81
2022-11-29T02:58:47.674Z,101218.50
2022-11-29T03:01:20.292Z,101224.06
2022-11-29T03:03:55.407Z,101226.59
2022-11-29T03:06:38.684Z,101229.34
2022-11-29T03:09:12.301Z,101240.38
2022-11-29T03:11:48.013Z,101242.84
2022-11-29T03:14:23.533Z,101239.28
2022-11-29T03:17:00.801Z,101234.84
2022-11-29T03:19:47.417Z,101235.97
2022-11-29T03:22:30.035Z,101239.56
2022-11-29T03:25:03.160Z,101242.00
2022-11-29T03:27:38.625Z,101246.97
2022-11-29T03:30:08.759Z,101248.34
2022-11-29T03:32:45.591Z,101248.91
2022-11-29T03:35:18.839Z,101256.94
2022-11-29T03:37:55.381Z,101259.44
2022-11-29T03:40:28.137Z,101265.22
2022-11-29T03:43:00.823Z,101266.31
2022-11-29T03:45:32.896Z,101275.66
2022-11-29T03:48:09.939Z,101271.56
2022-11-29T03:50:41.504Z,101280.41
2022-11-29T03:53:17.964Z,101284.50
2022-11-29T03:56:42.566Z,101285.88
2022-11-29T03:59:22.849Z,101292.22
2022-11-29T04:02:22.464Z,101293.31
2022-11-29T04:05:19.788Z,101298.00
2022-11-29T04:08:08.544Z,101304.88
2022-11-29T04:11:05.624Z,101299.38
2022-11-29T04:14:14.171Z,101306.53
2022-11-29T04:17:22.205Z,101297.97
2022-11-29T04:20:36.294Z,101307.91
2022-11-29T04:23:41.725Z,101315.66
2022-11-29T04:30:10.037Z,101318.13
2022-11-29T04:33:29.598Z,101307.63
2022-11-29T04:36:28.688Z,101310.63
2022-11-29T04:39:26.279Z,101312.53
2022-11-29T04:42:39.447Z,101314.72
2022-11-29T04:45:54.030Z,101319.75
2022-11-29T04:48:54.779Z,101320.84
2022-11-29T04:52:02.964Z,101324.88
2022-11-29T04:54:40.269Z,101334.28
2022-11-29T04:57:23.540Z,101325.19
2022-11-29T05:00:12.012Z,101327.72
2022-11-29T05:02:49.044Z,101327.47
2022-11-29T05:05:32.538Z,101339.59
2022-11-29T05:08:33.429Z,101334.38
2022-11-29T05:11:50.318Z,101341.59
2022-11-29T05:14:28.648Z,101346.31
2022-11-29T05:17:24.541Z,101354.59
2022-11-29T05:20:33.680Z,101358.47
2022-11-29T05:23:25.844Z,101355.50
2022-11-29T05:26:05.910Z,101360.19
2022-11-29T05:28:56.347Z,101369.03
2022-11-29T05:31:47.189Z,101370.13
2022-11-29T05:34:42.559Z,101372.88
2022-11-29T05:37:25.822Z,101379.53
2022-11-29T05:40:18.887Z,101380.09
2022-11-29T05:43:04.425Z,101379.22
2022-11-29T05:45:37.046Z,101387.53
2022-11-29T05:48:13.678Z,101401.06
2022-11-29T05:50:48.046Z,101397.78
2022-11-29T05:53:24.908Z,101397.22
2022-11-29T05:56:03.294Z,101401.09
2022-11-29T05:58:40.771Z,101410.19
2022-11-29T06:01:18.460Z,101421.50
2022-11-29T06:03:55.980Z,101422.91
2022-11-29T06:06:33.515Z,101413.78
2022-11-29T06:09:33.969Z,101419.56
2022-11-29T06:12:46.222Z,101426.50
2022-11-29T06:16:17.331Z,101433.13
2022-11-29T06:23:59.479Z,101434.78
2022-11-29T06:31:20.369Z,101443.34
2022-11-29T10:25:08.664Z,101682.84
2022-11-29T10:27:39.914Z,101686.47
2022-11-29T10:30:13.598Z,101678.38
2022-11-29T10:32:41.275Z,101685.91
2022-11-29T10:35:13.541Z,101689.47
2022-11-29T10:40:59.327Z,101689.38
2022-11-29T10:43:27.768Z,101683.03
2022-11-29T10:45:56.280Z,101693.59
2022-11-29T10:48:28.719Z,101686.88
2022-11-29T10:56:30.431Z,101691.75
2022-11-29T10:59:03.293Z,101679.56
2022-11-29T11:01:31.496Z,101683.03
2022-11-29T11:04:00.735Z,101683.84
2022-11-29T11:06:41.541Z,101691.31
2022-11-29T11:09:20.235Z,101693.63
2022-11-29T11:11:52.879Z,101702.69
2022-11-29T11:14:23.328Z,101700.25
2022-11-29T11:16:50.776Z,101692.13
2022-11-29T11:19:35.500Z,101702.34
2022-11-29T11:22:04.139Z,101699.34
2022-11-29T11:24:33.304Z,101700.69
2022-11-29T11:27:01.491Z,101703.31
2022-11-29T11:29:37.817Z,101710.59
2022-11-29T11:32:07.617Z,101702.78
2022-11-29T11:34:36.613Z,101709.41
2022-11-29T11:37:21.185Z,101710.81
2022-11-29T11:39:49.891Z,101712.13
2022-11-29T11:42:37.435Z,101714.44
2022-11-29T11:45:23.119Z,101717.00
2022-11-29T11:47:52.392Z,101718.06
2022-11-29T11:50:28.196Z,101719.28
2022-11-29T11:52:57.546Z,101725.34
2022-11-29T11:55:33.706Z,101721.91
2022-11-29T11:58:13.822Z,101729.53
2022-11-29T12:01:03.397Z,101723.38
2022-11-29T12:03:45.136Z,101727.53
2022-11-29T12:06:26.123Z,101724.34
2022-11-29T12:08:57.659Z,101732.13
2022-11-29T12:11:26.463Z,101733.13
2022-11-29T12:13:59.213Z,101735.03
2022-11-29T12:16:34.624Z,101736.75
2022-11-29T12:19:07.340Z,101732.84
2022-11-29T12:21:40.489Z,101730.53
2022-11-29T12:24:20.483Z,101732.97
2022-11-29T12:27:03.143Z,101739.38
2022-11-29T12:29:34.330Z,101733.81
2022-11-29T12:32:14.246Z,101741.72
2022-11-29T12:34:54.371Z,101743.72
2022-11-29T12:37:29.071Z,101744.56
2022-11-29T12:40:02.293Z,101745.19
2022-11-29T12:42:40.997Z,101746.63
2022-11-29T12:45:29.820Z,101743.72
2022-11-29T12:48:10.192Z,101744.50
2022-11-29T12:50:45.436Z,101745.50
2022-11-29T12:53:27.546Z,101756.06
2022-11-29T12:56:03.663Z,101757.50
2022-11-29T12:58:45.470Z,101755.19
2022-11-29T13:01:19.602Z,101756.13
2022-11-29T13:03:58.770Z,101754.72
2022-11-29T13:06:33.089Z,101744.44
2022-11-29T13:09:17.754Z,101759.41
2022-11-29T13:11:51.328Z,101751.81
2022-11-29T13:14:43.719Z,101748.22
2022-11-29T13:17:26.377Z,101742.78
2022-11-29T13:19:58.545Z,101745.78
2022-11-29T13:22:30.789Z,101741.91
2022-11-29T13:25:01.505Z,101747.50
2022-11-29T13:27:33.204Z,101763.28
2022-11-29T13:30:01.467Z,101763.78
2022-11-29T13:32:36.215Z,101757.22
2022-11-29T13:35:09.357Z,101762.59
2022-11-29T13:37:42.161Z,101767.25
2022-11-29T13:40:23.658Z,101764.66
2022-11-29T13:42:58.968Z,101761.78
2022-11-29T13:45:34.363Z,101762.69
2022-11-29T13:48:24.915Z,101769.16
2022-11-29T13:50:57.043Z,101767.66
2022-11-29T13:53:26.198Z,101754.44
2022-11-29T13:56:02.769Z,101758.72
2022-11-29T13:58:37.331Z,101766.16
2022-11-29T14:01:08.502Z,101765.78
2022-11-29T14:03:38.887Z,101767.38
2022-11-29T14:06:13.996Z,101762.28
2022-11-29T14:09:17.431Z,101762.69
2022-11-29T14:11:38.099Z,101771.75
2022-11-29T14:14:08.641Z,101774.31
2022-11-29T14:16:39.261Z,101764.25
2022-11-29T14:19:26.582Z,101769.03
2022-11-29T14:22:22.139Z,101779.53
2022-11-29T14:25:49.744Z,101777.09
2022-11-29T14:28:31.600Z,101784.47
2022-11-29T14:31:01.588Z,101786.91
2022-11-29T14:34:00.535Z,101784.78
2022-11-29T14:36:51.664Z,101786.00
2022-11-29T14:39:31.735Z,101784.19
2022-11-29T14:42:14.636Z,101775.94
2022-11-29T14:44:48.444Z,101790.63
2022-11-29T14:47:24.320Z,101780.97
2022-11-29T14:49:54.084Z,101796.59
2022-11-29T14:52:29.300Z,101789.78
2022-11-29T14:55:05.420Z,101787.44
2022-11-29T14:58:15.904Z,101799.75
2022-11-29T15:01:08.181Z,101796.16
2022-11-29T15:03:43.918Z,101795.06
2022-11-29T15:06:15.649Z,101802.25
2022-11-29T15:08:51.906Z,101796.97
2022-11-29T15:11:30.328Z,101797.84
2022-11-29T15:14:04.479Z,101800.94
2022-11-29T15:16:54.051Z,101800.75
2022-11-29T15:19:42.569Z,101798.53
2022-11-29T15:22:16.079Z,101798.00
2022-11-29T15:24:54.637Z,101798.88
2022-11-29T15:27:23.263Z,101804.47
2022-11-29T15:29:50.548Z,101793.09
2022-11-29T15:32:23.033Z,101798.06
2022-11-29T15:34:51.919Z,101798.38
2022-11-29T15:37:23.798Z,101795.91
2022-11-29T15:40:02.490Z,101793.72
2022-11-29T15:42:38.822Z,101808.16
2022-11-29T15:45:30.336Z,101805.38
2022-11-29T15:48:12.667Z,101800.91
2022-11-29T15:50:42.872Z,101804.81
2022-11-29T15:53:16.437Z,101812.31
2022-11-29T15:55:44.058Z,101804.28
2022-11-29T15:58:14.071Z,101804.28
2022-11-29T16:00:42.387Z,101805.94
2022-11-29T16:03:19.789Z,101806.53
2022-11-29T16:05:52.524Z,101803.75
2022-11-29T16:08:21.220Z,101805.94
2022-11-29T16:10:52.971Z,101817.31
2022-11-29T16:13:39.861Z,101813.72
2022-11-29T16:16:11.882Z,101819.56
2022-11-29T16:18:41.260Z,101808.75
2022-11-29T16:21:22.811Z,101810.13
2022-11-29T16:23:49.711Z,101812.34
2022-11-29T16:26:19.519Z,101822.94
2022-11-29T16:28:49.861Z,101824.03
2022-11-29T16:31:18.275Z,101830.38
2022-11-29T16:33:47.539Z,101833.41
2022-11-29T16:36:17.555Z,101825.38
2022-11-29T17:53:47.611Z,101868.53
2022-11-29T17:56:18.061Z,101878.25
2022-11-29T18:04:41.407Z,101873.56
2022-11-29T18:07:08.197Z,101878.84
2022-11-29T18:10:15.666Z,101874.94
2022-11-29T18:20:59.348Z,101891.81
2022-11-29T18:23:30.097Z,101891.56
2022-11-29T18:26:00.098Z,101899.31
2022-11-29T18:28:27.322Z,101903.22
2022-11-29T18:30:54.674Z,101899.06
2022-11-29T18:33:21.607Z,101904.03
2022-11-29T18:35:48.619Z,101896.28
2022-11-29T18:38:16.551Z,101900.16
2022-11-29T18:40:47.286Z,101907.06
2022-11-29T18:43:17.221Z,101903.19
2022-11-29T18:45:44.074Z,101904.03
2022-11-29T18:48:10.980Z,101899.06
2022-11-29T18:50:37.890Z,101900.16
2022-11-29T18:53:04.747Z,101891.03
2022-11-29T18:55:31.553Z,101900.72
2022-11-29T18:57:58.451Z,101908.19
2022-11-29T19:00:26.755Z,101900.41
2022-11-29T19:02:54.080Z,101896.00
2022-11-29T19:05:20.948Z,101902.91
2022-11-29T19:07:48.034Z,101906.25
2022-11-29T19:10:15.058Z,101910.09
2022-11-29T19:12:41.808Z,101907.91
2022-11-29T19:15:09.802Z,101920.38
2022-11-29T19:17:42.968Z,101914.56
2022-11-29T19:20:11.725Z,101923.69
2022-11-29T19:22:38.583Z,101919.53
2022-11-29T19:25:06.357Z,101919.53
2022-11-29T19:27:33.309Z,101917.88
2022-11-29T19:30:00.134Z,101923.69
2022-11-29T19:32:26.946Z,101920.63
2022-11-29T19:34:56.694Z,101933.38
2022-11-29T19:37:23.530Z,101936.16
2022-11-29T19:39:50.386Z,101953.03
2022-11-29T19:42:17.293Z,101953.03
2022-11-29T19:45:15.346Z,101953.31
2022-11-29T19:47:31.064Z,101951.09
2022-11-29T19:50:02.319Z,101945.00
2022-11-29T19:52:29.735Z,101945.56
2022-11-29T19:54:57.556Z,101961.03
2022-11-29T19:57:24.354Z,101954.69
2022-11-29T19:59:51.150Z,101955.78
2022-11-29T20:02:18.131Z,101965.47
2022-11-29T20:04:45.718Z,101956.88
2022-11-29T20:07:13.886Z,101954.69
2022-11-29T20:09:40.691Z,101957.75
2022-11-29T20:12:07.590Z,101958.56
2022-11-29T20:14:34.411Z,101959.13
2022-11-29T20:17:01.230Z,101959.41
2022-11-29T20:19:28.066Z,101958.56
2022-11-29T20:21:55.011Z,101955.50
2022-11-29T20:24:23.279Z,101965.47
2022-11-29T20:26:50.154Z,101961.34
2022-11-29T20:29:17.306Z,101964.38
2022-11-29T20:31:50.038Z,101966.03
2022-11-29T20:34:18.539Z,101971.28
2022-11-29T20:37:00.762Z,101969.06
2022-11-29T20:39:38.076Z,101965.19
2022-11-29T20:42:52.874Z,101968.53
2022-11-29T20:45:20.223Z,101961.03
2022-11-29T20:47:53.307Z,101973.50
2022-11-29T20:50:23.697Z,101972.66
2022-11-29T20:53:01.929Z,101979.03
2022-11-29T20:55:30.165Z,101972.94
2022-11-29T20:57:57.012Z,101974.34
2022-11-29T21:00:24.442Z,101976.00
2022-11-29T21:02:51.248Z,101978.47
2022-11-29T21:05:18.494Z,101976.84
2022-11-29T21:07:46.694Z,101983.75
2022-11-29T21:10:15.509Z,101990.66
2022-11-29T21:12:45.740Z,101990.13
2022-11-29T21:15:13.819Z,101994.81
2022-11-29T21:17:41.432Z,101991.78
2022-11-29T21:20:09.662Z,101986.78
2022-11-29T21:22:46.976Z,101994.28
2022-11-29T21:25:21.487Z,101989.03
2022-11-29T21:27:52.345Z,101985.44
2022-11-29T21:30:22.085Z,101986.28
2022-11-29T21:32:49.632Z,101982.66
2022-11-29T21:35:17.365Z,101985.16
2022-11-29T21:37:44.811Z,101997.06
2022-11-29T21:40:14.147Z,101998.75
2022-11-29T21:42:41.230Z,102001.78
2022-11-29T21:45:15.207Z,101996.50
2022-11-29T21:47:43.016Z,102003.19
2022-11-29T21:50:11.044Z,102007.59
2022-11-29T21:52:38.047Z,102001.81
2022-11-29T21:55:05.805Z,102015.66
2022-11-29T21:57:32.602Z,102009.00
2022-11-29T21:59:59.432Z,102008.44
2022-11-29T22:02:27.664Z,101999.31
2022-11-29T22:04:54.591Z,102002.63
2022-11-29T22:07:22.142Z,102005.94
2022-11-29T22:09:49.022Z,102002.63
2022-11-29T22:12:33.258Z,101997.38
2022-11-29T22:15:01.346Z,101988.50
2022-11-29T22:17:29.585Z,101995.44
2022-11-29T22:19:56.386Z,102006.53
2022-11-29T22:22:27.070Z,101999.88
2022-11-29T22:24:54.874Z,102001.00
2022-11-29T22:27:21.667Z,102004.59
2022-11-29T22:29:48.920Z,102004.84
2022-11-29T22:32:15.790Z,101998.22
2022-11-29T22:34:44.200Z,102002.66
2022-11-29T22:37:12.459Z,101995.44
2022-11-29T22:39:39.298Z,101995.97
2022-11-29T22:42:06.104Z,101997.66
2022-11-29T22:44:32.911Z,101996.84
2022-11-29T22:46:59.740Z,101994.91
2022-11-29T22:49:26.761Z,101999.31
2022-11-29T22:51:54.975Z,102005.13
2022-11-29T22:54:21.816Z,101991.56
2022-11-29T22:56:48.800Z,102006.81
2022-11-29T22:59:15.705Z,102005.13
2022-11-29T23:01:42.933Z,102001.81
2022-11-29T23:04:11.737Z,102004.03
2022-11-29T23:06:40.828Z,102007.91
2022-11-29T23:09:15.179Z,102004.03
2022-11-29T23:11:42.590Z,102005.69
2022-11-29T23:14:09.834Z,102008.22
2022-11-29T23:16:36.876Z,102006.53
2022-11-29T23:19:04.028Z,102011.50
2022-11-29T23:21:32.591Z,102004.88
2022-11-29T23:24:00.962Z,102007.91
2022-11-29T23:26:31.264Z,102010.97
2022-11-29T23:28:58.772Z,102011.53
2022-11-29T23:31:25.829Z,102015.69
2022-11-29T23:33:52.836Z,102010.69
2022-11-29T23:36:19.596Z,102012.34
2022-11-29T23:38:46.679Z,102022.31
2022-11-29T23:41:13.678Z,102019.56
2022-11-29T23:43:42.230Z,102025.38
2022-11-29T23:46:10.737Z,102022.06
2022-11-29T23:48:37.835Z,102018.72
2022-11-29T23:51:04.985Z,102019.84
2022-11-29T23:53:32.567Z,102021.22
2022-11-29T23:56:00.773Z,102019.28
2022-11-29T23:58:29.312Z,102022.59
